Pleasure Ridge Park, Kentucky
Current Conditions -  °F | °C
As of 10:56 AM on Friday 24 Oct 2014 (Local Time) from KSDF Reporting Station
Haze Haze  
Wind Chill: 50°   Ceiling: 13000
Heat Index: 50°   Visibility: 5mi
Dew Point: 44°   Wind: 6mph
Humidity: 80%   Direction: 150°SSE
Pressure: 30.14"   Gusts: NA
Location:  38.14°N, 85.84°W
Report Text: KSDF 241456Z 15005KT 5SM BR HZ FEW035 BKN130 BKN150 10/07 A3014 RMK AO2 SLP206 T01000067 50003
Loading
Personal Weather Stations






























Interactive Weather Map
Tropical Storm Tracking
New forecast layout! Learn more

10-Day Weather Forecast

Advertisements
Track Severe Weather on mobile